Time;durP1;ratioP1;P1;durP2;ratioP2;P2;SDS_P1;SDS_P2;PMS_P1;PMS_P2;Temp;Humidity;BMP_temperature;BMP_pressure;BME280_temperature;BME280_humidity;BME280_pressure;Samples;Min_cycle;Max_cycle;Signal;HPM_P1;HPM_P2
2023/08/04 00:01:03;;;;;;;;;;;17.90;99.90;;;;;;5094512;28;19956;-68
2023/08/04 00:03:29;;;;;;;;;;;17.90;99.90;;;;;;5094647;28;20290;-68
2023/08/04 00:05:55;;;;;;;;;;;17.90;99.90;;;;;;5094515;28;19923;-68
2023/08/04 00:08:21;;;;;;;;;;;17.90;99.90;;;;;;5094187;28;19908;-69
2023/08/04 00:10:46;;;;;;;;;;;17.90;99.90;;;;;;5094425;28;19919;-68
2023/08/04 00:13:12;;;;;;;;;;;17.90;99.90;;;;;;5092853;28;20265;-68
2023/08/04 00:15:37;;;;;;;;;;;17.90;99.90;;;;;;5093939;28;19990;-69
2023/08/04 00:18:03;;;;;;;;;;;17.80;99.90;;;;;;5094387;28;19900;-68
2023/08/04 00:20:29;;;;;;;;;;;17.90;99.90;;;;;;5094325;28;19919;-68
2023/08/04 00:22:54;;;;;;;;;;;17.90;99.90;;;;;;5092872;28;20324;-69
2023/08/04 00:25:20;;;;;;;;;;;17.90;99.90;;;;;;5093681;28;19915;-69
2023/08/04 00:27:45;;;;;;;;;;;17.90;99.90;;;;;;5093393;28;19999;-68
2023/08/04 00:30:11;;;;;;;;;;;17.90;99.90;;;;;;5094306;28;19911;-68
2023/08/04 00:32:36;;;;;;;;;;;17.90;99.90;;;;;;5092527;28;20224;-69
2023/08/04 00:35:05;;;;;;;;;;;18.00;99.90;;;;;;5093723;28;19919;-69
2023/08/04 00:37:31;;;;;;;;;;;17.90;99.90;;;;;;5093829;28;19908;-68
2023/08/04 00:39:57;;;;;;;;;;;17.90;99.90;;;;;;5093555;28;19914;-68
2023/08/04 00:42:22;;;;;;;;;;;17.90;99.90;;;;;;5094156;28;19904;-69
2023/08/04 00:44:48;;;;;;;;;;;17.90;99.90;;;;;;5094066;28;19912;-69
2023/08/04 00:47:14;;;;;;;;;;;17.80;99.90;;;;;;5093963;28;20295;-68
2023/08/04 00:49:40;;;;;;;;;;;17.80;99.90;;;;;;5093547;28;19912;-69
2023/08/04 00:52:05;;;;;;;;;;;17.80;99.90;;;;;;5092514;28;19919;-69
2023/08/04 00:54:31;;;;;;;;;;;17.80;99.90;;;;;;5093808;28;19904;-68
2023/08/04 00:56:57;;;;;;;;;;;17.80;99.90;;;;;;5093436;28;19907;-68
2023/08/04 00:59:22;;;;;;;;;;;17.80;99.90;;;;;;5093286;28;19912;-69
2023/08/04 01:01:48;;;;;;;;;;;17.80;99.90;;;;;;5093623;28;20428;-69
2023/08/04 01:04:15;;;;;;;;;;;17.70;99.90;;;;;;5093174;28;20246;-68
2023/08/04 01:06:51;;;;;;;;;;;17.70;99.90;;;;;;5093046;28;19912;-69
2023/08/04 01:09:27;;;;;;;;;;;17.70;99.90;;;;;;5093569;28;20376;-68
2023/08/04 01:12:00;;;;;;;;;;;17.70;99.90;;;;;;5091647;28;19946;-68
2023/08/04 01:14:28;;;;;;;;;;;17.70;99.90;;;;;;5091966;28;19907;-68
2023/08/04 01:16:53;;;;;;;;;;;17.70;99.90;;;;;;5092744;28;19930;-68
2023/08/04 01:19:19;;;;;;;;;;;17.60;99.90;;;;;;5091888;28;20380;-68
2023/08/04 01:21:45;;;;;;;;;;;17.60;99.90;;;;;;5093008;28;20337;-69
2023/08/04 01:24:10;;;;;;;;;;;17.50;99.90;;;;;;5093060;28;20373;-69
2023/08/04 01:26:38;;;;;;;;;;;17.60;99.90;;;;;;5091555;28;20026;-68
2023/08/04 01:29:05;;;;;;;;;;;17.50;99.90;;;;;;5092872;28;19908;-69
2023/08/04 01:31:31;;;;;;;;;;;17.50;99.90;;;;;;5092653;28;20356;-68
2023/08/04 01:33:57;;;;;;;;;;;17.40;99.90;;;;;;5091411;28;20003;-69
2023/08/04 01:36:22;;;;;;;;;;;17.30;99.90;;;;;;5080164;28;20046;-69
2023/08/04 01:38:48;;;;;;;;;;;17.20;99.90;;;;;;5072455;28;19965;-68
2023/08/04 01:41:13;;;;;;;;;;;17.30;99.90;;;;;;5072477;28;19998;-69
2023/08/04 01:43:39;;;;;;;;;;;17.20;99.90;;;;;;5072524;28;19916;-69
2023/08/04 01:46:04;;;;;;;;;;;17.20;99.90;;;;;;5072155;28;19917;-69
2023/08/04 01:48:30;;;;;;;;;;;17.30;99.90;;;;;;5072901;28;20427;-69
2023/08/04 01:50:55;;;;;;;;;;;17.30;99.90;;;;;;5072135;28;19908;-69
2023/08/04 01:53:21;;;;;;;;;;;17.20;99.90;;;;;;5072414;28;20359;-68
2023/08/04 01:55:47;;;;;;;;;;;17.20;99.90;;;;;;5070851;28;19969;-68
2023/08/04 01:58:13;;;;;;;;;;;17.20;99.90;;;;;;5072327;28;19995;-68
2023/08/04 02:00:38;;;;;;;;;;;17.20;99.90;;;;;;5071960;28;20002;-68
2023/08/04 02:03:04;;;;;;;;;;;17.20;99.90;;;;;;5072403;28;19904;-69
2023/08/04 02:05:29;;;;;;;;;;;17.20;99.90;;;;;;5071894;28;20322;-69
2023/08/04 02:07:55;;;;;;;;;;;17.10;99.90;;;;;;5072145;28;20285;-68
2023/08/04 02:10:20;;;;;;;;;;;17.10;99.90;;;;;;5070960;28;19908;-68
2023/08/04 02:12:46;;;;;;;;;;;17.00;99.90;;;;;;5071927;28;20323;-69
2023/08/04 02:15:12;;;;;;;;;;;17.00;99.90;;;;;;5072108;28;19999;-66
2023/08/04 02:17:37;;;;;;;;;;;17.00;99.90;;;;;;5071680;28;19916;-68
2023/08/04 02:20:03;;;;;;;;;;;17.00;99.90;;;;;;5070625;28;20352;-68
2023/08/04 02:22:29;;;;;;;;;;;17.00;99.90;;;;;;5070187;28;19958;-68
2023/08/04 02:24:54;;;;;;;;;;;17.00;99.90;;;;;;5070464;28;19920;-69
2023/08/04 02:27:20;;;;;;;;;;;17.00;99.90;;;;;;5071819;28;19916;-68
2023/08/04 02:29:45;;;;;;;;;;;17.00;99.90;;;;;;5070533;28;20326;-68
2023/08/04 02:32:11;;;;;;;;;;;17.00;99.90;;;;;;5071368;28;19913;-69
2023/08/04 02:34:36;;;;;;;;;;;17.00;99.90;;;;;;5071649;28;20364;-68
2023/08/04 02:37:02;;;;;;;;;;;16.90;99.90;;;;;;5071454;28;19916;-69
2023/08/04 02:39:27;;;;;;;;;;;16.90;99.90;;;;;;5071605;28;20279;-68
2023/08/04 02:41:53;;;;;;;;;;;16.90;99.90;;;;;;5071125;28;19920;-68
2023/08/04 02:44:19;;;;;;;;;;;16.90;99.90;;;;;;5071242;28;19932;-69
2023/08/04 02:46:45;;;;;;;;;;;16.90;99.90;;;;;;5070920;28;19973;-68
2023/08/04 02:49:10;;;;;;;;;;;16.90;99.90;;;;;;5069989;28;19999;-67
2023/08/04 02:51:36;;;;;;;;;;;16.90;99.90;;;;;;5070933;28;20322;-67
2023/08/04 02:54:01;;;;;;;;;;;16.90;99.90;;;;;;5071475;28;19915;-68
2023/08/04 02:56:27;;;;;;;;;;;16.80;99.90;;;;;;5071207;28;19920;-67
2023/08/04 02:58:52;;;;;;;;;;;16.80;99.90;;;;;;5071397;28;20385;-69
2023/08/04 03:01:18;;;;;;;;;;;16.80;99.90;;;;;;5071012;28;19920;-69
2023/08/04 03:03:43;;;;;;;;;;;16.80;99.90;;;;;;5070913;28;20323;-68
2023/08/04 03:06:09;;;;;;;;;;;16.80;99.90;;;;;;5071506;28;20321;-69
2023/08/04 03:08:35;;;;;;;;;;;16.80;99.90;;;;;;5071065;28;20030;-69
2023/08/04 03:11:00;;;;;;;;;;;16.80;99.90;;;;;;5070950;28;20440;-68
2023/08/04 03:13:26;;;;;;;;;;;16.80;99.90;;;;;;5071050;28;19916;-68
2023/08/04 03:15:56;;;;;;;;;;;16.80;99.90;;;;;;5070874;28;20472;-68
2023/08/04 03:18:22;;;;;;;;;;;16.80;99.90;;;;;;5071238;28;20339;-69
2023/08/04 03:20:47;;;;;;;;;;;16.80;99.90;;;;;;5070827;28;19931;-68
2023/08/04 03:23:13;;;;;;;;;;;16.80;99.90;;;;;;5070866;28;19909;-68
2023/08/04 03:25:38;;;;;;;;;;;16.80;99.90;;;;;;5069622;28;19999;-68
2023/08/04 03:28:04;;;;;;;;;;;16.70;99.90;;;;;;5070707;28;20338;-69
2023/08/04 03:30:30;;;;;;;;;;;16.70;99.90;;;;;;5071322;28;19909;-69
2023/08/04 03:32:56;;;;;;;;;;;16.80;99.90;;;;;;5069466;28;19999;-68
2023/08/04 03:35:21;;;;;;;;;;;16.80;99.90;;;;;;5074252;28;20019;-68
2023/08/04 03:37:47;;;;;;;;;;;16.80;99.90;;;;;;5073765;28;19908;-69
2023/08/04 03:40:14;;;;;;;;;;;16.80;99.90;;;;;;5074476;28;19913;-69
2023/08/04 03:42:40;;;;;;;;;;;16.80;99.90;;;;;;5073367;28;19970;-69
2023/08/04 03:45:06;;;;;;;;;;;16.80;99.90;;;;;;5074880;28;19904;-68
2023/08/04 03:47:31;;;;;;;;;;;16.80;99.90;;;;;;5074273;28;20119;-68
2023/08/04 03:49:57;;;;;;;;;;;16.80;99.90;;;;;;5074459;28;19908;-69
2023/08/04 03:52:22;;;;;;;;;;;16.70;99.90;;;;;;5074150;28;20224;-69
2023/08/04 03:54:48;;;;;;;;;;;16.80;99.90;;;;;;5073232;28;20294;-68
2023/08/04 03:57:14;;;;;;;;;;;16.80;99.90;;;;;;5074586;28;19954;-69
2023/08/04 03:59:39;;;;;;;;;;;16.80;99.90;;;;;;5072912;28;19942;-68
2023/08/04 04:02:05;;;;;;;;;;;16.80;99.90;;;;;;5074161;28;19969;-69
2023/08/04 04:04:30;;;;;;;;;;;16.70;99.90;;;;;;5073737;28;19955;-68
2023/08/04 04:06:56;;;;;;;;;;;16.70;99.90;;;;;;5073715;28;19912;-69
2023/08/04 04:09:22;;;;;;;;;;;16.70;99.90;;;;;;5074325;28;20389;-69
2023/08/04 04:11:47;;;;;;;;;;;16.70;99.90;;;;;;5074073;28;19908;-69
2023/08/04 04:14:13;;;;;;;;;;;16.80;99.90;;;;;;5073643;28;20258;-69
2023/08/04 04:16:38;;;;;;;;;;;16.80;99.90;;;;;;5073871;28;19913;-69
2023/08/04 04:19:04;;;;;;;;;;;16.80;99.90;;;;;;5073618;28;19919;-68
2023/08/04 04:21:29;;;;;;;;;;;16.80;99.90;;;;;;5074135;28;20246;-69
2023/08/04 04:23:55;;;;;;;;;;;16.80;99.90;;;;;;5073452;28;19908;-69
2023/08/04 04:26:21;;;;;;;;;;;16.80;99.90;;;;;;5073362;28;19920;-68
2023/08/04 04:28:46;;;;;;;;;;;16.80;99.90;;;;;;5073318;28;20293;-69
2023/08/04 04:31:12;;;;;;;;;;;16.70;99.90;;;;;;5073409;28;19923;-69
2023/08/04 04:33:37;;;;;;;;;;;16.80;99.90;;;;;;5073108;28;20250;-69
2023/08/04 04:36:03;;;;;;;;;;;16.80;99.90;;;;;;5073622;28;19995;-68
2023/08/04 04:38:29;;;;;;;;;;;16.80;99.90;;;;;;5073593;28;19947;-69
2023/08/04 04:40:57;;;;;;;;;;;16.80;99.90;;;;;;5073385;28;19912;-68
2023/08/04 04:43:23;;;;;;;;;;;16.80;99.90;;;;;;5073453;28;19913;-68
2023/08/04 04:45:49;;;;;;;;;;;16.90;99.90;;;;;;5072892;28;19942;-68
2023/08/04 04:48:15;;;;;;;;;;;16.80;99.90;;;;;;5073961;28;19919;-68
2023/08/04 04:50:41;;;;;;;;;;;16.80;99.90;;;;;;5073083;28;19908;-69
2023/08/04 04:53:06;;;;;;;;;;;16.80;99.90;;;;;;5073114;28;20007;-68
2023/08/04 04:55:32;;;;;;;;;;;16.90;99.90;;;;;;5071778;28;19938;-69
2023/08/04 04:57:57;;;;;;;;;;;16.90;99.90;;;;;;5072781;28;19928;-68
2023/08/04 05:00:23;;;;;;;;;;;16.90;99.90;;;;;;5073358;28;19946;-69
2023/08/04 05:02:49;;;;;;;;;;;17.00;99.90;;;;;;5073076;28;20384;-68
2023/08/04 05:05:14;;;;;;;;;;;17.00;99.90;;;;;;5073004;28;20377;-68
2023/08/04 05:07:40;;;;;;;;;;;17.00;99.90;;;;;;5072669;28;19927;-69
2023/08/04 05:10:05;;;;;;;;;;;17.00;99.90;;;;;;5073011;28;19919;-68
2023/08/04 05:12:31;;;;;;;;;;;17.10;99.90;;;;;;5073266;28;19916;-69
2023/08/04 05:14:57;;;;;;;;;;;17.10;99.90;;;;;;5073271;28;20339;-69
2023/08/04 05:17:22;;;;;;;;;;;17.10;99.90;;;;;;5072662;28;20379;-68
2023/08/04 05:19:48;;;;;;;;;;;17.10;99.90;;;;;;5071303;28;19913;-68
2023/08/04 05:22:13;;;;;;;;;;;17.00;99.90;;;;;;5072367;28;19908;-67
2023/08/04 05:24:39;;;;;;;;;;;17.00;99.90;;;;;;5072284;28;19908;-69
2023/08/04 05:27:05;;;;;;;;;;;17.00;99.90;;;;;;5071984;28;20262;-68
2023/08/04 05:29:30;;;;;;;;;;;17.00;99.90;;;;;;5072551;28;19908;-69
2023/08/04 05:31:56;;;;;;;;;;;17.00;99.90;;;;;;5072263;28;19908;-68
2023/08/04 05:34:21;;;;;;;;;;;17.00;99.90;;;;;;5072124;28;19930;-68
2023/08/04 05:36:47;;;;;;;;;;;17.00;99.90;;;;;;5072173;28;19996;-69
2023/08/04 05:39:12;;;;;;;;;;;17.10;99.90;;;;;;5072270;28;19995;-69
2023/08/04 05:41:38;;;;;;;;;;;17.10;99.90;;;;;;5072434;28;19962;-69
2023/08/04 05:44:04;;;;;;;;;;;17.10;99.90;;;;;;5072046;28;19919;-68
2023/08/04 05:46:29;;;;;;;;;;;17.20;99.90;;;;;;5072105;28;19934;-68
2023/08/04 05:48:55;;;;;;;;;;;17.20;99.90;;;;;;5072229;28;19987;-69
2023/08/04 05:51:20;;;;;;;;;;;17.30;99.90;;;;;;5072229;28;19961;-69
2023/08/04 05:53:46;;;;;;;;;;;17.30;99.90;;;;;;5070646;28;19912;-68
2023/08/04 05:56:12;;;;;;;;;;;17.20;99.90;;;;;;5071412;28;19920;-68
2023/08/04 05:58:37;;;;;;;;;;;17.20;99.90;;;;;;5071420;28;19913;-68
2023/08/04 06:01:03;;;;;;;;;;;17.20;99.90;;;;;;5071591;28;20360;-68
2023/08/04 06:03:28;;;;;;;;;;;17.20;99.90;;;;;;5072287;28;19916;-69
2023/08/04 06:05:54;;;;;;;;;;;17.20;99.90;;;;;;5071461;28;19916;-68
2023/08/04 06:08:20;;;;;;;;;;;17.30;99.90;;;;;;5071671;28;19919;-69
2023/08/04 06:10:45;;;;;;;;;;;17.40;99.90;;;;;;5071305;28;19908;-68
2023/08/04 06:13:11;;;;;;;;;;;17.40;99.90;;;;;;5071361;28;19947;-69
2023/08/04 06:15:36;;;;;;;;;;;17.40;99.90;;;;;;5071276;28;19944;-70
2023/08/04 06:18:02;;;;;;;;;;;17.50;99.90;;;;;;5071811;28;19900;-70
2023/08/04 06:20:27;;;;;;;;;;;17.50;99.90;;;;;;5071748;28;19919;-69
2023/08/04 06:22:53;;;;;;;;;;;17.50;99.90;;;;;;5069884;28;19999;-69
2023/08/04 06:25:19;;;;;;;;;;;17.50;99.90;;;;;;5071134;28;19913;-68
2023/08/04 06:27:44;;;;;;;;;;;17.60;99.90;;;;;;5070773;28;20400;-67
2023/08/04 06:30:10;;;;;;;;;;;17.60;99.90;;;;;;5071608;28;19908;-68
2023/08/04 06:32:35;;;;;;;;;;;17.60;99.90;;;;;;5070931;28;20026;-69
2023/08/04 06:35:01;;;;;;;;;;;17.60;99.90;;;;;;5070955;28;19961;-68
2023/08/04 06:37:26;;;;;;;;;;;17.60;99.90;;;;;;5071094;28;19908;-69
2023/08/04 06:39:52;;;;;;;;;;;17.50;99.90;;;;;;5070848;28;20015;-69
2023/08/04 06:42:18;;;;;;;;;;;17.60;99.90;;;;;;5071271;28;19916;-68
2023/08/04 06:44:44;;;;;;;;;;;17.60;99.90;;;;;;5069986;28;19920;-69
2023/08/04 06:47:10;;;;;;;;;;;17.70;99.90;;;;;;5070794;28;20177;-69
2023/08/04 06:49:36;;;;;;;;;;;17.60;99.90;;;;;;5070983;28;20046;-68
2023/08/04 06:52:02;;;;;;;;;;;17.60;99.90;;;;;;5071042;28;19950;-69
2023/08/04 06:54:27;;;;;;;;;;;17.60;99.90;;;;;;5071063;28;20337;-67
2023/08/04 06:56:53;;;;;;;;;;;17.60;99.90;;;;;;5069378;28;19912;-68
2023/08/04 06:59:18;;;;;;;;;;;17.70;99.90;;;;;;5069486;28;19923;-68
2023/08/04 07:01:44;;;;;;;;;;;17.60;99.90;;;;;;5069439;28;19923;-69
2023/08/04 07:04:10;;;;;;;;;;;17.70;99.90;;;;;;5070462;28;19912;-68
2023/08/04 07:06:35;;;;;;;;;;;17.80;99.90;;;;;;5069299;28;20238;-71
2023/08/04 07:09:02;;;;;;;;;;;17.90;99.90;;;;;;5070740;28;20162;-69
2023/08/04 07:11:28;;;;;;;;;;;17.90;99.90;;;;;;5070814;28;20004;-68
2023/08/04 07:13:53;;;;;;;;;;;17.90;99.90;;;;;;5070425;28;19923;-69
2023/08/04 07:16:19;;;;;;;;;;;17.90;99.90;;;;;;5069575;28;19916;-69
2023/08/04 07:18:44;;;;;;;;;;;17.90;99.90;;;;;;5070598;28;19920;-69
2023/08/04 07:21:11;;;;;;;;;;;18.00;99.90;;;;;;5071038;28;20326;-68
2023/08/04 07:23:37;;;;;;;;;;;18.10;99.90;;;;;;5070728;28;19908;-68
2023/08/04 07:26:04;;;;;;;;;;;18.10;99.90;;;;;;5070629;28;19913;-69
2023/08/04 07:28:32;;;;;;;;;;;17.90;99.90;;;;;;5070479;28;19917;-68
2023/08/04 07:30:59;;;;;;;;;;;17.90;99.90;;;;;;5070618;28;19995;-69
2023/08/04 07:33:25;;;;;;;;;;;17.90;99.90;;;;;;5070512;28;19958;-69
2023/08/04 07:35:57;;;;;;;;;;;17.90;99.90;;;;;;5069292;28;20366;-67
2023/08/04 07:38:23;;;;;;;;;;;18.00;99.90;;;;;;5070191;28;20389;-68
2023/08/04 07:40:49;;;;;;;;;;;18.10;99.90;;;;;;5069184;28;19913;-68
2023/08/04 07:43:15;;;;;;;;;;;18.10;99.90;;;;;;5069224;28;19951;-68
2023/08/04 07:45:41;;;;;;;;;;;18.10;99.90;;;;;;5070323;28;19951;-70
2023/08/04 07:48:06;;;;;;;;;;;18.20;99.90;;;;;;5069507;28;19954;-69
2023/08/04 07:50:34;;;;;;;;;;;18.30;99.90;;;;;;5070440;28;20327;-69
2023/08/04 07:53:00;;;;;;;;;;;18.30;99.90;;;;;;5070085;28;19912;-70
2023/08/04 07:55:25;;;;;;;;;;;18.40;99.90;;;;;;5068718;28;19908;-69
2023/08/04 07:57:51;;;;;;;;;;;18.50;99.90;;;;;;5070096;28;19930;-69
2023/08/04 08:00:17;;;;;;;;;;;18.60;99.90;;;;;;5070463;28;19908;-69
2023/08/04 08:02:42;;;;;;;;;;;18.70;99.90;;;;;;5070218;28;19912;-69
2023/08/04 08:05:08;;;;;;;;;;;18.70;99.90;;;;;;5068839;28;20307;-69
2023/08/04 08:07:34;;;;;;;;;;;18.70;99.90;;;;;;5069742;28;20410;-69
2023/08/04 08:09:59;;;;;;;;;;;18.80;99.90;;;;;;5070176;28;19916;-68
2023/08/04 08:12:25;;;;;;;;;;;18.80;99.90;;;;;;5070452;28;19969;-69
2023/08/04 08:14:51;;;;;;;;;;;18.90;99.90;;;;;;5069918;28;20265;-70
2023/08/04 08:17:16;;;;;;;;;;;19.10;99.90;;;;;;5070085;28;19909;-69
2023/08/04 08:19:42;;;;;;;;;;;19.10;99.90;;;;;;5069356;28;20214;-69
2023/08/04 08:22:08;;;;;;;;;;;19.30;99.90;;;;;;5073566;28;20010;-69
2023/08/04 08:24:33;;;;;;;;;;;19.40;99.90;;;;;;5073753;28;20257;-70
2023/08/04 08:26:59;;;;;;;;;;;19.60;99.90;;;;;;5073518;28;20418;-71
2023/08/04 08:29:24;;;;;;;;;;;19.70;99.90;;;;;;5073646;28;19912;-71
2023/08/04 08:31:50;;;;;;;;;;;19.80;99.90;;;;;;5073532;28;19947;-70
2023/08/04 08:34:15;;;;;;;;;;;19.80;99.90;;;;;;5072711;28;19977;-70
2023/08/04 08:36:41;;;;;;;;;;;19.80;99.90;;;;;;5072075;28;20187;-70
2023/08/04 08:39:07;;;;;;;;;;;19.80;99.90;;;;;;5073831;28;19901;-70
2023/08/04 08:41:33;;;;;;;;;;;19.90;99.90;;;;;;5073139;28;20010;-70
2023/08/04 08:43:59;;;;;;;;;;;20.20;99.90;;;;;;5073165;28;20035;-69
2023/08/04 08:46:25;;;;;;;;;;;20.30;99.90;;;;;;5072988;28;19916;-70
2023/08/04 08:48:55;;;;;;;;;;;20.30;99.90;;;;;;5073042;28;20361;-70
2023/08/04 08:51:22;;;;;;;;;;;20.30;99.90;;;;;;5073484;28;19907;-70
2023/08/04 08:53:48;;;;;;;;;;;20.20;99.90;;;;;;5073351;28;19918;-71
2023/08/04 08:56:15;;;;;;;;;;;20.20;99.90;;;;;;5073137;28;20559;-71
2023/08/04 08:58:40;;;;;;;;;;;20.00;99.90;;;;;;5072026;28;19912;-70
2023/08/04 09:01:06;;;;;;;;;;;20.20;99.90;;;;;;5072709;28;19908;-70
2023/08/04 09:03:33;;;;;;;;;;;20.40;99.90;;;;;;5073302;28;19957;-71
2023/08/04 09:05:59;;;;;;;;;;;20.40;99.90;;;;;;5073103;28;19920;-70
2023/08/04 09:08:24;;;;;;;;;;;20.60;99.90;;;;;;5071756;28;20337;-70
2023/08/04 09:10:50;;;;;;;;;;;20.60;99.90;;;;;;5072869;28;19908;-69
2023/08/04 09:13:16;;;;;;;;;;;20.60;99.90;;;;;;5072598;28;20262;-70
2023/08/04 09:15:48;;;;;;;;;;;20.60;99.90;;;;;;5072805;28;20190;-70
2023/08/04 09:18:23;;;;;;;;;;;20.60;99.90;;;;;;5072857;28;19897;-69
2023/08/04 09:20:56;;;;;;;;;;;20.70;99.90;;;;;;5072572;28;20337;-70
2023/08/04 09:23:21;;;;;;;;;;;20.80;99.90;;;;;;5072580;28;19935;-70
2023/08/04 09:25:51;;;;;;;;;;;20.90;99.30;;;;;;5072435;28;19954;-70
2023/08/04 09:28:16;;;;;;;;;;;20.90;99.10;;;;;;5072600;28;20011;-70
2023/08/04 09:30:58;;;;;;;;;;;20.80;99.10;;;;;;5072224;28;19995;-70
2023/08/04 09:33:24;;;;;;;;;;;21.00;99.40;;;;;;5071896;28;20368;-70
2023/08/04 09:35:59;;;;;;;;;;;21.10;99.30;;;;;;5071076;28;19917;-69
2023/08/04 09:38:25;;;;;;;;;;;21.10;99.00;;;;;;5072091;28;20306;-69
2023/08/04 09:40:58;;;;;;;;;;;21.20;98.70;;;;;;5072307;28;20007;-69
2023/08/04 09:43:24;;;;;;;;;;;21.30;98.70;;;;;;5072430;28;19916;-70
2023/08/04 09:45:54;;;;;;;;;;;21.10;99.00;;;;;;5071970;28;19908;-69
2023/08/04 09:48:24;;;;;;;;;;;21.10;98.90;;;;;;5072257;28;19904;-70
2023/08/04 09:50:50;;;;;;;;;;;21.20;99.00;;;;;;5071875;28;19912;-69
2023/08/04 09:53:16;;;;;;;;;;;21.10;98.30;;;;;;5072072;28;19921;-68
2023/08/04 09:55:42;;;;;;;;;;;21.10;98.60;;;;;;5072037;28;19981;-69
2023/08/04 09:58:07;;;;;;;;;;;21.10;98.80;;;;;;5071796;28;19908;-69
2023/08/04 10:00:33;;;;;;;;;;;21.10;98.60;;;;;;5071085;28;19904;-68
2023/08/04 10:02:59;;;;;;;;;;;21.10;99.10;;;;;;5071981;28;20011;-69
2023/08/04 10:05:25;;;;;;;;;;;21.30;99.00;;;;;;5071753;28;19975;-69
2023/08/04 10:07:51;;;;;;;;;;;21.70;99.00;;;;;;5071387;28;19995;-69
2023/08/04 10:10:17;;;;;;;;;;;22.10;98.40;;;;;;5071518;28;19908;-70
2023/08/04 10:12:43;;;;;;;;;;;22.30;98.20;;;;;;5071320;28;19920;-69
2023/08/04 10:15:09;;;;;;;;;;;22.50;97.60;;;;;;5070537;28;19908;-68
2023/08/04 10:17:34;;;;;;;;;;;22.40;96.90;;;;;;5071249;28;19913;-69
2023/08/04 10:20:04;;;;;;;;;;;22.30;96.90;;;;;;5071262;28;20298;-69
2023/08/04 10:22:30;;;;;;;;;;;22.10;96.60;;;;;;5071317;28;19918;-69
2023/08/04 10:24:56;;;;;;;;;;;22.00;95.80;;;;;;5070950;28;19908;-70
2023/08/04 10:27:22;;;;;;;;;;;21.80;96.50;;;;;;5071452;28;19908;-70
2023/08/04 10:30:03;;;;;;;;;;;22.00;97.10;;;;;;5071548;28;19915;-69
2023/08/04 10:32:36;;;;;;;;;;;22.10;96.90;;;;;;5070068;28;19999;-70
2023/08/04 10:35:03;;;;;;;;;;;21.80;96.60;;;;;;5071018;28;20373;-70
2023/08/04 10:37:28;;;;;;;;;;;22.00;96.60;;;;;;5071098;28;19908;-68
2023/08/04 10:39:58;;;;;;;;;;;21.80;96.60;;;;;;5071096;28;19916;-68
2023/08/04 10:42:25;;;;;;;;;;;22.00;97.00;;;;;;5070889;28;19908;-68
2023/08/04 10:44:55;;;;;;;;;;;22.00;96.80;;;;;;5071105;28;19973;-69
2023/08/04 10:47:41;;;;;;;;;;;21.70;96.90;;;;;;5070725;28;19951;-69
2023/08/04 10:50:07;;;;;;;;;;;21.70;97.10;;;;;;5070429;28;20394;-70
2023/08/04 10:52:33;;;;;;;;;;;21.70;97.30;;;;;;5070846;28;19908;-70
2023/08/04 10:54:59;;;;;;;;;;;21.70;97.10;;;;;;5070706;28;19919;-69
2023/08/04 10:57:27;;;;;;;;;;;21.90;97.20;;;;;;5070971;28;19908;-70
2023/08/04 10:59:53;;;;;;;;;;;21.70;96.20;;;;;;5069397;28;20358;-69
2023/08/04 11:02:20;;;;;;;;;;;21.70;96.30;;;;;;5069539;28;19924;-71
2023/08/04 11:04:45;;;;;;;;;;;21.80;95.50;;;;;;5069541;28;19916;-69
2023/08/04 11:07:11;;;;;;;;;;;21.70;95.30;;;;;;5070548;28;19965;-70
2023/08/04 11:09:37;;;;;;;;;;;21.90;95.40;;;;;;5070525;28;19927;-69
2023/08/04 11:12:05;;;;;;;;;;;22.10;95.60;;;;;;5069896;28;19958;-68
2023/08/04 11:14:30;;;;;;;;;;;22.20;95.10;;;;;;5070861;28;19923;-70
2023/08/04 11:17:00;;;;;;;;;;;22.10;95.60;;;;;;5070591;28;20258;-69
2023/08/04 11:19:26;;;;;;;;;;;22.30;95.20;;;;;;5070408;28;20016;-69
2023/08/04 11:21:51;;;;;;;;;;;22.30;95.50;;;;;;5070291;28;20023;-69
2023/08/04 11:24:21;;;;;;;;;;;22.50;95.90;;;;;;5071277;28;19904;-68
2023/08/04 11:26:47;;;;;;;;;;;22.80;95.50;;;;;;5069152;28;19916;-69
2023/08/04 11:29:13;;;;;;;;;;;22.90;95.50;;;;;;5069199;28;20291;-70
2023/08/04 11:31:40;;;;;;;;;;;22.80;94.60;;;;;;5070246;28;19918;-69
2023/08/04 11:34:11;;;;;;;;;;;22.70;94.70;;;;;;5068962;28;19921;-70
2023/08/04 11:36:38;;;;;;;;;;;22.60;95.10;;;;;;5069973;28;19904;-69
2023/08/04 11:39:04;;;;;;;;;;;22.60;94.90;;;;;;5070604;28;19987;-68
2023/08/04 11:41:30;;;;;;;;;;;22.60;95.30;;;;;;5070608;28;19981;-71
2023/08/04 11:43:55;;;;;;;;;;;22.70;95.40;;;;;;5070471;28;20293;-69
2023/08/04 11:46:21;;;;;;;;;;;22.50;94.40;;;;;;5070047;28;19912;-70
2023/08/04 11:48:46;;;;;;;;;;;22.50;94.60;;;;;;5070109;28;19904;-69
2023/08/04 11:51:12;;;;;;;;;;;22.30;94.40;;;;;;5070478;28;19908;-70
2023/08/04 11:53:38;;;;;;;;;;;22.30;94.90;;;;;;5069901;28;20203;-69
2023/08/04 11:56:05;;;;;;;;;;;22.30;94.90;;;;;;5072709;28;19908;-69
2023/08/04 11:58:32;;;;;;;;;;;22.40;95.20;;;;;;5073989;28;19920;-68
2023/08/04 12:00:57;;;;;;;;;;;22.50;94.90;;;;;;5072532;28;19909;-69
2023/08/04 12:03:23;;;;;;;;;;;22.50;95.10;;;;;;5074523;28;19927;-69
2023/08/04 12:05:49;;;;;;;;;;;22.60;94.80;;;;;;5074098;28;19915;-70
2023/08/04 12:08:15;;;;;;;;;;;22.60;94.40;;;;;;5073948;28;19913;-69
2023/08/04 12:10:41;;;;;;;;;;;22.60;94.70;;;;;;5072932;28;19924;-69
2023/08/04 12:13:07;;;;;;;;;;;22.50;94.50;;;;;;5073421;28;19948;-69
2023/08/04 12:15:53;;;;;;;;;;;22.40;94.50;;;;;;5074372;28;19954;-68
2023/08/04 12:18:26;;;;;;;;;;;22.40;94.40;;;;;;5073647;28;19959;-69
2023/08/04 12:20:51;;;;;;;;;;;22.40;94.40;;;;;;5073566;28;19915;-68
2023/08/04 12:23:17;;;;;;;;;;;22.30;94.20;;;;;;5073474;28;19908;-69
2023/08/04 12:25:42;;;;;;;;;;;22.40;94.30;;;;;;5073506;28;19912;-69
2023/08/04 12:28:08;;;;;;;;;;;22.50;94.80;;;;;;5073453;28;19924;-68
2023/08/04 12:30:33;;;;;;;;;;;22.70;95.00;;;;;;5074036;28;20251;-69
2023/08/04 12:32:59;;;;;;;;;;;22.40;95.40;;;;;;5073636;28;19924;-69
2023/08/04 12:35:24;;;;;;;;;;;22.50;95.40;;;;;;5073456;28;20334;-69
2023/08/04 12:37:50;;;;;;;;;;;22.60;95.30;;;;;;5073460;28;19912;-69
2023/08/04 12:40:15;;;;;;;;;;;22.70;94.70;;;;;;5073307;28;20302;-70
2023/08/04 12:42:41;;;;;;;;;;;23.00;94.20;;;;;;5073161;28;19904;-70
2023/08/04 12:45:06;;;;;;;;;;;23.10;93.60;;;;;;5074046;28;19900;-68
2023/08/04 12:47:32;;;;;;;;;;;23.10;93.00;;;;;;5073430;28;20249;-68
2023/08/04 12:49:58;;;;;;;;;;;23.20;93.00;;;;;;5073485;28;19909;-70
2023/08/04 12:52:23;;;;;;;;;;;23.10;92.70;;;;;;5073072;28;19913;-68
2023/08/04 12:54:49;;;;;;;;;;;23.10;92.60;;;;;;5072841;28;20011;-69
2023/08/04 12:57:14;;;;;;;;;;;23.00;93.00;;;;;;5073501;28;19901;-68
2023/08/04 12:59:40;;;;;;;;;;;23.00;93.00;;;;;;5073025;28;20255;-69
2023/08/04 13:02:06;;;;;;;;;;;23.10;93.00;;;;;;5072947;28;20015;-68
2023/08/04 13:04:33;;;;;;;;;;;23.30;93.00;;;;;;5073004;28;20262;-69
2023/08/04 13:06:59;;;;;;;;;;;23.20;93.00;;;;;;5071203;28;19972;-68
2023/08/04 13:09:24;;;;;;;;;;;23.20;93.00;;;;;;5073101;28;19912;-69
2023/08/04 13:11:50;;;;;;;;;;;23.20;93.00;;;;;;5072967;28;19923;-68
2023/08/04 13:14:16;;;;;;;;;;;23.20;93.00;;;;;;5071671;28;20448;-68
2023/08/04 13:16:41;;;;;;;;;;;23.20;93.30;;;;;;5072667;28;20395;-70
2023/08/04 13:19:07;;;;;;;;;;;23.10;93.50;;;;;;5072543;28;19916;-70
2023/08/04 13:21:32;;;;;;;;;;;23.10;93.70;;;;;;5072930;28;19905;-69
2023/08/04 13:23:58;;;;;;;;;;;23.10;93.50;;;;;;5073230;28;19940;-68
2023/08/04 13:26:24;;;;;;;;;;;23.00;93.10;;;;;;5074413;28;20379;-68
2023/08/04 13:28:50;;;;;;;;;;;23.00;92.80;;;;;;5074705;28;19912;-67
2023/08/04 13:31:15;;;;;;;;;;;23.00;93.00;;;;;;5074810;28;19908;-69
2023/08/04 13:33:41;;;;;;;;;;;23.10;93.40;;;;;;5073576;28;19916;-68
2023/08/04 13:36:07;;;;;;;;;;;23.20;93.50;;;;;;5073805;28;19995;-68
2023/08/04 13:38:32;;;;;;;;;;;23.30;93.00;;;;;;5073450;28;19908;-69
2023/08/04 13:40:58;;;;;;;;;;;23.20;92.50;;;;;;5072919;28;19908;-69
2023/08/04 13:43:23;;;;;;;;;;;23.20;92.20;;;;;;5074164;28;19955;-68
2023/08/04 13:45:49;;;;;;;;;;;23.20;92.30;;;;;;5073365;28;19908;-69
2023/08/04 13:48:14;;;;;;;;;;;23.20;92.50;;;;;;5073985;28;20021;-68
2023/08/04 13:50:40;;;;;;;;;;;23.10;92.50;;;;;;5074057;28;20361;-69
2023/08/04 13:53:06;;;;;;;;;;;23.00;92.30;;;;;;5074308;28;20476;-69
2023/08/04 13:55:33;;;;;;;;;;;23.10;92.40;;;;;;5073411;28;20342;-68
2023/08/04 13:57:59;;;;;;;;;;;22.90;92.30;;;;;;5071965;28;19908;-68
2023/08/04 14:00:24;;;;;;;;;;;22.90;92.40;;;;;;5072105;28;19915;-68
2023/08/04 14:02:50;;;;;;;;;;;22.90;92.40;;;;;;5070560;28;19912;-69
2023/08/04 14:05:15;;;;;;;;;;;23.00;93.50;;;;;;5070451;28;19909;-68
2023/08/04 14:07:41;;;;;;;;;;;23.10;94.00;;;;;;5071744;28;20246;-68
2023/08/04 14:10:07;;;;;;;;;;;23.00;94.10;;;;;;5071641;28;20013;-69